Time;durP1;ratioP1;P1;durP2;ratioP2;P2;SDS_P1;SDS_P2;PMS_P1;PMS_P2;Temp;Humidity;BMP_temperature;BMP_pressure;BME280_temperature;BME280_humidity;BME280_pressure;Samples;Min_cycle;Max_cycle;Signal;HPM_P1;HPM_P2
2021/08/15 00:00:54;;;;;;;;;;;;;;;22.85;76.09;99684.56;5074921;28;19963;-71
2021/08/15 00:03:23;;;;;;;;;;;;;;;22.83;76.23;99689.84;5074920;28;19974;-72
2021/08/15 00:05:51;;;;;;;;;;;;;;;22.84;76.21;99695.91;5074545;28;19928;-72
2021/08/15 00:08:22;;;;;;;;;;;;;;;22.79;76.28;99687.47;5074854;28;19921;-77
2021/08/15 00:10:50;;;;;;;;;;;;;;;22.82;76.21;99682.13;5074528;28;20016;-77
2021/08/15 00:13:19;;;;;;;;;;;;;;;22.81;76.18;99688.25;5056598;28;20024;-77
2021/08/15 00:15:48;;;;;;;;;;;;;;;22.74;76.26;99684.25;5074621;28;20395;-77
2021/08/15 00:18:16;;;;;;;;;;;;;;;22.75;76.53;99685.97;5074278;28;19952;-77
2021/08/15 00:20:46;;;;;;;;;;;;;;;22.73;76.47;99683.41;5074672;28;20290;-77
2021/08/15 00:23:15;;;;;;;;;;;;;;;22.65;76.51;99682.97;5074336;28;20333;-77
2021/08/15 00:25:46;;;;;;;;;;;;;;;22.59;76.84;99680.63;5074258;28;20297;-77
2021/08/15 00:28:15;;;;;;;;;;;;;;;22.52;77.06;99680.09;5074640;28;19920;-77
2021/08/15 00:30:46;;;;;;;;;;;;;;;22.36;76.99;99673.94;5074251;28;19920;-77
2021/08/15 00:33:31;;;;;;;;;;;;;;;22.26;77.48;99680.53;5056309;28;20019;-73
2021/08/15 00:36:00;;;;;;;;;;;;;;;22.24;77.72;99677.19;5074032;28;19985;-74
2021/08/15 00:38:29;;;;;;;;;;;;;;;22.31;77.92;99675.97;5056248;28;20331;-71
2021/08/15 00:40:59;;;;;;;;;;;;;;;22.32;77.64;99677.63;5074409;28;20015;-72
2021/08/15 00:43:31;;;;;;;;;;;;;;;22.35;77.69;99677.47;5074339;28;20375;-72
2021/08/15 00:46:07;;;;;;;;;;;;;;;22.28;77.52;99668.28;5074045;28;19928;-74
2021/08/15 00:48:36;;;;;;;;;;;;;;;22.14;77.79;99673.31;5074048;28;19969;-78
2021/08/15 00:51:05;;;;;;;;;;;;;;;22.22;78.04;99676.38;5074318;28;19921;-77
2021/08/15 00:53:34;;;;;;;;;;;;;;;22.15;77.91;99675.00;5074288;28;19924;-77
2021/08/15 00:56:04;;;;;;;;;;;;;;;22.07;78.25;99671.94;5073896;28;20014;-77
2021/08/15 00:58:34;;;;;;;;;;;;;;;22.02;78.36;99671.31;5074324;28;20027;-73
2021/08/15 01:01:04;;;;;;;;;;;;;;;21.98;78.38;99667.16;5074212;28;19943;-77
2021/08/15 01:03:33;;;;;;;;;;;;;;;21.97;78.61;99660.28;5074226;28;19927;-77
2021/08/15 01:06:02;;;;;;;;;;;;;;;21.90;78.67;99658.88;5074004;28;19970;-77
2021/08/15 01:08:31;;;;;;;;;;;;;;;21.79;78.63;99661.09;5055915;28;19921;-77
2021/08/15 01:11:01;;;;;;;;;;;;;;;21.80;78.91;99652.41;5055868;28;20019;-77
2021/08/15 01:13:31;;;;;;;;;;;;;;;21.90;78.90;99659.75;5075844;28;19924;-77
2021/08/15 01:16:00;;;;;;;;;;;;;;;21.91;78.80;99655.34;5078057;28;19931;-75
2021/08/15 01:18:31;;;;;;;;;;;;;;;21.90;78.83;99656.28;5078131;28;19926;-74
2021/08/15 01:21:00;;;;;;;;;;;;;;;21.91;78.86;99652.75;5078450;28;19971;-72
2021/08/15 01:23:29;;;;;;;;;;;;;;;21.95;78.74;99646.53;5078043;28;19963;-72
2021/08/15 01:25:58;;;;;;;;;;;;;;;22.03;78.58;99645.22;5077901;28;19927;-72
2021/08/15 01:28:29;;;;;;;;;;;;;;;22.00;78.45;99652.34;5078236;28;19971;-72
2021/08/15 01:30:58;;;;;;;;;;;;;;;21.91;78.63;99651.00;5078260;28;19921;-72
2021/08/15 01:33:28;;;;;;;;;;;;;;;21.86;78.73;99642.59;5077778;28;19920;-72
2021/08/15 01:35:57;;;;;;;;;;;;;;;21.81;78.83;99638.50;5077553;28;19924;-72
2021/08/15 01:38:27;;;;;;;;;;;;;;;21.82;79.12;99629.78;5077492;28;20033;-72
2021/08/15 01:40:56;;;;;;;;;;;;;;;21.87;79.00;99638.22;5077448;28;20384;-72
2021/08/15 01:43:25;;;;;;;;;;;;;;;21.81;79.06;99630.72;5077490;28;20015;-72
2021/08/15 01:45:56;;;;;;;;;;;;;;;21.76;79.17;99633.50;5077079;28;20370;-72
2021/08/15 01:48:25;;;;;;;;;;;;;;;21.74;79.31;99637.13;5077280;28;19956;-72
2021/08/15 01:50:54;;;;;;;;;;;;;;;21.79;79.27;99627.31;5077187;28;19963;-72
2021/08/15 01:53:23;;;;;;;;;;;;;;;21.84;79.32;99627.94;5077438;28;19955;-72
2021/08/15 01:55:52;;;;;;;;;;;;;;;21.87;79.23;99633.03;5076114;28;20283;-78
2021/08/15 01:58:21;;;;;;;;;;;;;;;21.82;78.99;99629.78;5077625;28;19974;-75
2021/08/15 02:00:50;;;;;;;;;;;;;;;21.75;79.12;99628.38;5076978;28;20362;-77
2021/08/15 02:03:20;;;;;;;;;;;;;;;21.78;79.18;99628.25;5058975;28;19956;-77
2021/08/15 02:05:50;;;;;;;;;;;;;;;21.78;79.17;99633.44;5058919;28;19924;-77
2021/08/15 02:08:18;;;;;;;;;;;;;;;21.85;79.23;99632.28;5076893;28;19921;-77
2021/08/15 02:10:47;;;;;;;;;;;;;;;21.88;78.97;99630.34;5077145;28;19920;-74
2021/08/15 02:13:16;;;;;;;;;;;;;;;21.92;78.69;99631.06;5077251;28;20015;-75
2021/08/15 02:15:44;;;;;;;;;;;;;;;21.94;78.44;99630.06;5077039;28;19922;-72
2021/08/15 02:18:13;;;;;;;;;;;;;;;21.95;78.11;99631.75;5076709;28;19928;-72
2021/08/15 02:20:43;;;;;;;;;;;;;;;21.94;78.12;99630.06;5058638;28;20281;-72
2021/08/15 02:23:13;;;;;;;;;;;;;;;21.92;78.03;99631.06;5076515;28;20015;-72
2021/08/15 02:25:41;;;;;;;;;;;;;;;21.90;77.76;99627.69;5075552;28;19927;-72
2021/08/15 02:28:10;;;;;;;;;;;;;;;21.88;77.75;99630.34;5076801;28;19921;-72
2021/08/15 02:30:39;;;;;;;;;;;;;;;21.87;77.74;99627.84;5076458;28;19927;-72
2021/08/15 02:33:07;;;;;;;;;;;;;;;21.82;77.83;99624.59;5076711;28;20316;-72
2021/08/15 02:35:36;;;;;;;;;;;;;;;21.81;77.84;99618.53;5076417;28;20389;-73
2021/08/15 02:38:06;;;;;;;;;;;;;;;21.81;77.77;99623.72;5076714;28;20366;-72
2021/08/15 02:40:35;;;;;;;;;;;;;;;21.81;77.89;99618.53;5076920;28;20018;-72
2021/08/15 02:43:03;;;;;;;;;;;;;;;21.81;77.77;99628.13;5076234;28;20412;-72
2021/08/15 02:45:32;;;;;;;;;;;;;;;21.80;77.86;99626.41;5076198;28;19921;-72
2021/08/15 02:48:01;;;;;;;;;;;;;;;21.77;77.85;99621.34;5076133;28;20308;-72
2021/08/15 02:50:30;;;;;;;;;;;;;;;21.78;78.13;99623.06;5076444;28;19920;-72
2021/08/15 02:52:58;;;;;;;;;;;;;;;21.75;78.10;99618.00;5076119;28;19920;-72
2021/08/15 02:55:28;;;;;;;;;;;;;;;21.74;77.97;99616.31;5076326;28;19926;-78
2021/08/15 02:57:57;;;;;;;;;;;;;;;21.74;77.93;99616.31;5076292;28;19927;-78
2021/08/15 03:00:26;;;;;;;;;;;;;;;21.73;78.00;99620.66;5076162;28;20007;-78
2021/08/15 03:02:55;;;;;;;;;;;;;;;21.66;78.16;99618.44;5075734;28;19999;-78
2021/08/15 03:05:24;;;;;;;;;;;;;;;21.67;78.30;99607.09;5057923;28;19920;-77
2021/08/15 03:07:52;;;;;;;;;;;;;;;21.60;78.10;99610.91;5075663;28;19920;-78
2021/08/15 03:10:22;;;;;;;;;;;;;;;21.63;78.46;99602.97;5076335;28;19934;-78
2021/08/15 03:12:52;;;;;;;;;;;;;;;21.66;78.20;99600.25;5075885;28;20449;-78
2021/08/15 03:15:20;;;;;;;;;;;;;;;21.58;78.36;99600.59;5075977;28;19920;-74
2021/08/15 03:17:49;;;;;;;;;;;;;;;21.61;78.38;99600.47;5075853;28;19921;-72
2021/08/15 03:20:19;;;;;;;;;;;;;;;21.68;78.28;99595.81;5075870;28;20335;-72
2021/08/15 03:22:47;;;;;;;;;;;;;;;21.66;78.22;99597.66;5075370;28;19960;-72
2021/08/15 03:25:16;;;;;;;;;;;;;;;21.63;78.36;99600.38;5075957;28;19920;-73
2021/08/15 03:27:45;;;;;;;;;;;;;;;21.62;78.15;99602.13;5075224;28;19920;-72
2021/08/15 03:30:15;;;;;;;;;;;;;;;21.59;78.41;99597.09;5075270;28;20370;-72
2021/08/15 03:32:43;;;;;;;;;;;;;;;21.55;78.58;99595.53;5075324;28;20275;-76
2021/08/15 03:35:12;;;;;;;;;;;;;;;21.59;78.67;99594.50;5075143;28;19962;-72
2021/08/15 03:37:42;;;;;;;;;;;;;;;21.64;78.33;99589.94;5074879;28;20397;-72
2021/08/15 03:40:11;;;;;;;;;;;;;;;21.62;78.46;99593.53;5075030;28;19921;-72
2021/08/15 03:42:40;;;;;;;;;;;;;;;21.63;78.49;99593.44;5075110;28;19966;-72
2021/08/15 03:45:09;;;;;;;;;;;;;;;21.61;78.26;99595.25;5057112;28;19967;-72
2021/08/15 03:47:39;;;;;;;;;;;;;;;21.62;78.53;99596.13;5075478;28;20249;-73
2021/08/15 03:50:08;;;;;;;;;;;;;;;21.63;78.52;99590.84;5074949;28;20019;-73
2021/08/15 03:52:40;;;;;;;;;;;;;;;21.65;78.41;99590.75;5074884;28;19920;-72
2021/08/15 03:55:11;;;;;;;;;;;;;;;21.67;78.26;99586.31;5075173;28;20425;-72
2021/08/15 03:57:40;;;;;;;;;;;;;;;21.66;78.19;99585.50;5056887;28;19921;-72
2021/08/15 04:00:09;;;;;;;;;;;;;;;21.66;78.25;99582.06;5074680;28;20370;-72
2021/08/15 04:02:39;;;;;;;;;;;;;;;21.60;78.31;99587.53;5075226;28;19990;-72
2021/08/15 04:05:08;;;;;;;;;;;;;;;21.55;78.55;99581.69;5074997;28;19920;-72
2021/08/15 04:07:37;;;;;;;;;;;;;;;21.53;78.69;99586.13;5075095;28;20023;-73
2021/08/15 04:10:08;;;;;;;;;;;;;;;21.50;78.91;99579.31;5074519;28;19943;-73
2021/08/15 04:12:38;;;;;;;;;;;;;;;21.47;79.18;99583.84;5074852;28;20278;-72
2021/08/15 04:15:06;;;;;;;;;;;;;;;21.51;79.10;99577.56;5074490;28;20276;-73
2021/08/15 04:17:36;;;;;;;;;;;;;;;21.53;79.43;99583.53;5074700;28;19967;-73
2021/08/15 04:20:08;;;;;;;;;;;;;;;21.55;79.27;99581.69;5074634;28;19924;-79
2021/08/15 04:22:36;;;;;;;;;;;;;;;21.66;79.25;99576.84;5056621;28;19924;-78
2021/08/15 04:25:06;;;;;;;;;;;;;;;21.74;79.12;99575.56;5074599;28;19970;-78
2021/08/15 04:27:34;;;;;;;;;;;;;;;21.84;78.94;99582.03;5074251;28;20324;-78
2021/08/15 04:30:03;;;;;;;;;;;;;;;21.93;78.69;99583.38;5074611;28;19964;-78
2021/08/15 04:32:32;;;;;;;;;;;;;;;21.92;78.54;99582.53;5074268;28;19924;-78
2021/08/15 04:35:00;;;;;;;;;;;;;;;21.94;78.57;99579.84;5074252;28;20332;-79
2021/08/15 04:37:31;;;;;;;;;;;;;;;22.00;78.54;99582.16;5069984;28;19920;-78
2021/08/15 04:40:00;;;;;;;;;;;;;;;22.07;78.46;99582.69;5074822;28;19920;-78
2021/08/15 04:42:29;;;;;;;;;;;;;;;22.09;78.37;99581.72;5074113;28;19927;-78
2021/08/15 04:44:58;;;;;;;;;;;;;;;22.14;78.35;99584.91;5074208;28;19927;-73
2021/08/15 04:47:26;;;;;;;;;;;;;;;22.18;78.36;99586.44;5055356;28;19920;-75
2021/08/15 04:49:55;;;;;;;;;;;;;;;22.29;78.31;99584.13;5074375;28;19921;-74
2021/08/15 04:52:24;;;;;;;;;;;;;;;22.29;78.16;99584.13;5073033;28;19924;-78
2021/08/15 04:54:54;;;;;;;;;;;;;;;22.42;78.07;99585.22;5074063;28;19970;-79
2021/08/15 04:57:23;;;;;;;;;;;;;;;22.60;77.55;99584.28;5073930;28;19926;-78
2021/08/15 04:59:51;;;;;;;;;;;;;;;22.73;76.94;99579.31;5073940;28;20433;-78
2021/08/15 05:02:20;;;;;;;;;;;;;;;22.85;76.52;99583.03;5074144;28;19920;-75
2021/08/15 05:04:49;;;;;;;;;;;;;;;22.97;76.01;99587.59;5074103;28;19976;-73
2021/08/15 05:07:18;;;;;;;;;;;;;;;23.06;75.67;99576.72;5073765;28;20437;-72
2021/08/15 05:09:46;;;;;;;;;;;;;;;;;;5073797;28;19921;-73
2021/08/15 05:12:16;;;;;;;;;;;;;;;23.25;74.99;99578.22;5074093;28;20290;-73
2021/08/15 05:14:45;;;;;;;;;;;;;;;23.38;74.60;99578.44;5075564;28;19921;-73
2021/08/15 05:17:14;;;;;;;;;;;;;;;23.47;74.22;99583.16;5078983;28;19920;-78
2021/08/15 05:19:43;;;;;;;;;;;;;;;23.59;74.07;99582.47;5079826;28;19930;-77
2021/08/15 05:22:11;;;;;;;;;;;;;;;23.65;73.70;99587.38;5077747;28;19951;-76
2021/08/15 05:24:40;;;;;;;;;;;;;;;23.82;73.46;99583.81;5074752;28;19921;-76
2021/08/15 05:27:08;;;;;;;;;;;;;;;23.90;72.97;99582.44;5073619;28;19921;-77
2021/08/15 05:29:39;;;;;;;;;;;;;;;24.02;72.62;99579.13;5073587;28;19924;-78
2021/08/15 05:32:08;;;;;;;;;;;;;;;24.09;72.03;99578.84;5072697;28;19920;-77
2021/08/15 05:34:37;;;;;;;;;;;;;;;24.18;71.80;99575.69;5073890;28;20032;-74
2021/08/15 05:37:06;;;;;;;;;;;;;;;24.21;71.68;99581.56;5073431;28;20362;-78
2021/08/15 05:39:35;;;;;;;;;;;;;;;24.26;71.91;99583.91;5073869;28;20396;-77
2021/08/15 05:42:03;;;;;;;;;;;;;;;24.38;71.74;99589.25;5073944;28;19970;-77
2021/08/15 05:44:32;;;;;;;;;;;;;;;24.38;71.37;99583.19;5073432;28;20003;-77
2021/08/15 05:47:04;;;;;;;;;;;;;;;24.33;71.46;99580.03;5073500;28;19960;-78
2021/08/15 05:49:33;;;;;;;;;;;;;;;24.49;70.97;99581.63;5055602;28;19927;-77
2021/08/15 05:52:02;;;;;;;;;;;;;;;24.67;70.57;99590.13;5073425;28;19967;-77
2021/08/15 05:54:30;;;;;;;;;;;;;;;24.88;69.89;99590.66;5073458;28;19921;-76
2021/08/15 05:56:59;;;;;;;;;;;;;;;25.00;69.47;99584.69;5073334;28;20366;-73
2021/08/15 05:59:33;;;;;;;;;;;;;;;25.13;68.67;99589.06;5075149;28;19924;-73
2021/08/15 06:02:02;;;;;;;;;;;;;;;25.17;68.60;99585.31;5076948;28;19921;-73
2021/08/15 06:04:32;;;;;;;;;;;;;;;25.11;67.99;99583.09;5076920;28;20365;-73
2021/08/15 06:07:01;;;;;;;;;;;;;;;25.10;68.14;99578.78;5076892;28;19928;-73
2021/08/15 06:09:29;;;;;;;;;;;;;;;25.11;68.03;99580.47;5076764;28;19966;-73
2021/08/15 06:12:04;;;;;;;;;;;;;;;25.28;67.76;99580.28;5076752;28;20004;-73
2021/08/15 06:14:33;;;;;;;;;;;;;;;25.45;67.67;99578.41;5077166;28;19930;-75
2021/08/15 06:17:02;;;;;;;;;;;;;;;25.58;67.13;99590.59;5076712;28;19943;-73
2021/08/15 06:19:32;;;;;;;;;;;;;;;25.76;66.70;99588.59;5077488;28;19920;-75
2021/08/15 06:22:01;;;;;;;;;;;;;;;25.93;66.10;99590.97;5058683;28;19927;-74
2021/08/15 06:24:30;;;;;;;;;;;;;;;26.00;65.79;99586.16;5076600;28;20275;-74
2021/08/15 06:26:59;;;;;;;;;;;;;;;26.06;65.12;99591.81;5076481;28;20019;-74
2021/08/15 06:29:28;;;;;;;;;;;;;;;26.15;65.21;99588.66;5058538;28;20315;-75
2021/08/15 06:31:57;;;;;;;;;;;;;;;26.04;65.38;99585.84;5076777;28;19943;-74
2021/08/15 06:34:25;;;;;;;;;;;;;;;26.20;65.01;99585.72;5076029;28;19927;-74
2021/08/15 06:36:55;;;;;;;;;;;;;;;26.34;64.93;99583.88;5076188;28;20007;-74
2021/08/15 06:39:24;;;;;;;;;;;;;;;26.38;64.56;99585.34;5075879;28;19921;-77
2021/08/15 06:41:53;;;;;;;;;;;;;;;26.45;64.06;99583.97;5076010;28;20385;-76
2021/08/15 06:44:21;;;;;;;;;;;;;;;26.62;64.09;99590.69;5076095;28;19921;-77
2021/08/15 06:46:50;;;;;;;;;;;;;;;26.74;64.08;99589.00;5058155;28;20015;-76
2021/08/15 06:49:19;;;;;;;;;;;;;;;26.83;63.52;99594.50;5058142;28;19924;-76
2021/08/15 06:51:48;;;;;;;;;;;;;;;26.94;63.45;99596.38;5076073;28;19920;-76
2021/08/15 06:54:18;;;;;;;;;;;;;;;27.08;63.23;99588.41;5076635;28;20274;-76
2021/08/15 06:56:47;;;;;;;;;;;;;;;27.14;62.73;99594.03;5058080;28;19928;-76
2021/08/15 06:59:15;;;;;;;;;;;;;;;27.23;62.24;99590.78;5058085;28;19986;-76
2021/08/15 07:01:45;;;;;;;;;;;;;;;27.40;62.07;99578.31;5075573;28;19975;-77
2021/08/15 07:04:14;;;;;;;;;;;;;;;27.45;61.80;99582.25;5075733;28;19925;-77
2021/08/15 07:06:42;;;;;;;;;;;;;;;27.56;61.72;99579.72;5075606;28;19920;-76
2021/08/15 07:09:11;;;;;;;;;;;;;;;27.66;61.33;99585.97;5075496;28;19959;-76
2021/08/15 07:11:41;;;;;;;;;;;;;;;27.79;61.05;99589.38;5074912;28;19987;-77
2021/08/15 07:14:10;;;;;;;;;;;;;;;27.77;60.89;99591.28;5075672;28;19921;-78
2021/08/15 07:16:39;;;;;;;;;;;;;;;27.84;61.47;99583.78;5075928;28;20015;-77
2021/08/15 07:19:08;;;;;;;;;;;;;;;27.96;60.98;99588.13;5075462;28;19928;-77
2021/08/15 07:21:37;;;;;;;;;;;;;;;28.05;60.25;99584.03;5075468;28;19924;-77
2021/08/15 07:24:06;;;;;;;;;;;;;;;28.17;59.82;99586.56;5075423;28;19987;-78
2021/08/15 07:26:35;;;;;;;;;;;;;;;28.24;59.58;99586.97;5075242;28;19921;-77
2021/08/15 07:29:05;;;;;;;;;;;;;;;28.40;58.85;99592.75;5075437;28;20426;-77
2021/08/15 07:31:34;;;;;;;;;;;;;;;28.51;58.66;99590.97;5075969;28;19928;-77
2021/08/15 07:34:03;;;;;;;;;;;;;;;28.60;58.56;99584.25;5075217;28;20424;-74
2021/08/15 07:36:32;;;;;;;;;;;;;;;28.71;57.78;99593.91;5075157;28;20019;-74
2021/08/15 07:39:01;;;;;;;;;;;;;;;28.83;57.78;99588.56;5075123;28;19924;-74
2021/08/15 07:41:29;;;;;;;;;;;;;;;28.95;57.06;99594.66;5075015;28;19927;-73
2021/08/15 07:43:58;;;;;;;;;;;;;;;29.09;56.78;99586.53;5074978;28;20014;-74
2021/08/15 07:46:29;;;;;;;;;;;;;;;29.14;56.10;99579.09;5075158;28;20011;-74
2021/08/15 07:48:58;;;;;;;;;;;;;;;29.18;55.89;99580.53;5075256;28;19920;-74
2021/08/15 07:51:28;;;;;;;;;;;;;;;29.11;55.42;99580.19;5074874;28;19920;-74
2021/08/15 07:53:57;;;;;;;;;;;;;;;28.95;55.24;99579.72;5075321;28;20460;-74
2021/08/15 07:56:26;;;;;;;;;;;;;;;28.87;55.30;99581.25;5075068;28;20335;-74
2021/08/15 07:58:55;;;;;;;;;;;;;;;29.01;55.67;99578.41;5074684;28;19920;-74
2021/08/15 08:01:23;;;;;;;;;;;;;;;29.16;55.48;99575.41;5074768;28;20018;-73
2021/08/15 08:03:54;;;;;;;;;;;;;;;29.28;55.44;99576.25;5074599;28;19966;-74
2021/08/15 08:06:22;;;;;;;;;;;;;;;29.35;55.08;99580.06;5074604;28;19920;-74
2021/08/15 08:08:51;;;;;;;;;;;;;;;29.09;55.29;99576.84;5074458;28;19928;-73
2021/08/15 08:11:20;;;;;;;;;;;;;;;29.24;55.43;99579.25;5074618;28;19921;-73
2021/08/15 08:13:50;;;;;;;;;;;;;;;29.35;55.17;99568.69;5074622;28;20328;-73
2021/08/15 08:16:19;;;;;;;;;;;;;;;29.47;54.79;99565.09;5074750;28;20362;-73
2021/08/15 08:18:49;;;;;;;;;;;;;;;29.63;54.27;99576.94;5074725;28;20328;-74
2021/08/15 08:21:20;;;;;;;;;;;;;;;29.61;53.94;99573.56;5073708;28;19932;-74
2021/08/15 08:23:49;;;;;;;;;;;;;;;29.74;54.30;99565.50;5072081;28;20396;-73
2021/08/15 08:26:18;;;;;;;;;;;;;;;29.97;54.06;99572.38;5072972;28;19920;-73
2021/08/15 08:28:46;;;;;;;;;;;;;;;30.00;53.40;99569.50;5052606;28;20023;-74
2021/08/15 08:31:16;;;;;;;;;;;;;;;29.84;53.40;99563.84;5054894;28;19920;-73
2021/08/15 08:33:46;;;;;;;;;;;;;;;29.80;53.18;99552.72;5071125;28;19966;-73
2021/08/15 08:36:15;;;;;;;;;;;;;;;29.86;53.03;99556.63;5073873;28;19920;-73
2021/08/15 08:38:45;;;;;;;;;;;;;;;30.06;53.42;99547.94;5074084;28;20098;-74
2021/08/15 08:41:16;;;;;;;;;;;;;;;30.28;53.55;99547.00;5056352;28;20395;-74
2021/08/15 08:43:46;;;;;;;;;;;;;;;30.47;53.19;99542.69;5074767;28;19978;-73
2021/08/15 08:46:16;;;;;;;;;;;;;;;30.52;53.00;99533.56;5074353;28;19964;-73
2021/08/15 08:48:45;;;;;;;;;;;;;;;30.64;52.78;99540.44;5074000;28;19920;-73
2021/08/15 08:51:14;;;;;;;;;;;;;;;30.80;52.18;99543.41;5055946;28;19936;-73
2021/08/15 08:53:44;;;;;;;;;;;;;;;30.77;52.04;99549.78;5073899;28;19924;-73
2021/08/15 08:56:14;;;;;;;;;;;;;;;30.99;52.12;99535.59;5074336;28;19990;-73
2021/08/15 08:58:43;;;;;;;;;;;;;;;31.20;51.16;99540.78;5074224;28;20320;-73
2021/08/15 09:01:12;;;;;;;;;;;;;;;31.25;50.40;99542.06;5073866;28;19921;-73
2021/08/15 09:03:41;;;;;;;;;;;;;;;31.05;50.62;99543.81;5074110;28;19921;-74
2021/08/15 09:06:18;;;;;;;;;;;;;;;31.02;50.88;99537.97;5073938;28;19920;-74
2021/08/15 09:08:47;;;;;;;;;;;;;;;31.12;50.68;99539.66;5073889;28;19927;-73
2021/08/15 09:11:19;;;;;;;;;;;;;;;31.26;49.85;99538.47;5074549;28;19982;-73
2021/08/15 09:14:00;;;;;;;;;;;;;;;31.44;49.74;99536.84;5073883;28;19921;-73
2021/08/15 09:16:49;;;;;;;;;;;;;;;31.75;50.08;99527.84;5074090;28;20263;-73
2021/08/15 09:19:30;;;;;;;;;;;;;;;31.67;48.97;99535.63;5073789;28;19952;-76
2021/08/15 09:21:59;;;;;;;;;;;;;;;31.68;48.62;99525.91;5073729;28;19920;-76
2021/08/15 09:24:28;;;;;;;;;;;;;;;31.77;48.71;99536.47;5055769;28;19970;-76
2021/08/15 09:27:11;;;;;;;;;;;;;;;31.66;49.55;99528.69;5073782;28;20365;-76
2021/08/15 09:29:40;;;;;;;;;;;;;;;31.53;49.12;99528.13;5073586;28;20003;-73
2021/08/15 09:32:09;;;;;;;;;;;;;;;31.42;48.86;99524.75;5073593;28;19956;-75
2021/08/15 09:34:38;;;;;;;;;;;;;;;31.52;49.08;99526.47;5076099;28;19920;-76
2021/08/15 09:37:19;;;;;;;;;;;;;;;31.80;49.07;99525.63;5077219;28;20259;-72
2021/08/15 09:39:48;;;;;;;;;;;;;;;31.73;49.06;99524.53;5071791;28;19920;-72
2021/08/15 09:42:18;;;;;;;;;;;;;;;31.96;48.63;99518.97;5060067;28;19956;-72
2021/08/15 09:44:47;;;;;;;;;;;;;;;32.03;48.60;99525.38;5057567;28;19921;-72
2021/08/15 09:47:16;;;;;;;;;;;;;;;32.09;47.83;99530.94;5057915;28;20011;-72
2021/08/15 09:49:45;;;;;;;;;;;;;;;32.21;47.89;99521.88;5057154;28;20027;-72
2021/08/15 09:52:14;;;;;;;;;;;;;;;32.17;48.22;99517.84;5057204;28;19921;-72
2021/08/15 09:54:53;;;;;;;;;;;;;;;32.30;48.88;99509.59;5057119;28;19975;-72
2021/08/15 09:57:32;;;;;;;;;;;;;;;32.52;48.78;99517.22;5055892;28;20401;-73
2021/08/15 10:00:00;;;;;;;;;;;;;;;32.74;48.15;99511.59;5057087;28;19925;-71
2021/08/15 10:02:39;;;;;;;;;;;;;;;32.91;47.02;99504.69;5056994;28;19921;-72
2021/08/15 10:05:10;;;;;;;;;;;;;;;33.18;46.65;99504.72;5057000;28;19921;-71
2021/08/15 10:07:40;;;;;;;;;;;;;;;33.24;46.33;99490.03;5057270;28;19952;-72
2021/08/15 10:10:10;;;;;;;;;;;;;;;33.29;44.73;99498.34;5038924;28;19932;-72
2021/08/15 10:12:41;;;;;;;;;;;;;;;33.38;44.77;99500.13;5056865;28;19975;-72
2021/08/15 10:15:11;;;;;;;;;;;;;;;33.22;43.46;99492.00;5057083;28;19943;-72
2021/08/15 10:17:40;;;;;;;;;;;;;;;33.02;43.72;99488.63;5056809;28;20020;-71
2021/08/15 10:20:10;;;;;;;;;;;;;;;33.14;43.27;99486.66;5056674;28;20348;-72
2021/08/15 10:22:40;;;;;;;;;;;;;;;33.23;43.10;99481.28;5056816;28;19947;-72
2021/08/15 10:25:09;;;;;;;;;;;;;;;33.40;43.68;99487.56;5056930;28;19928;-72
2021/08/15 10:27:49;;;;;;;;;;;;;;;33.29;43.93;99478.03;5056553;28;20374;-71
2021/08/15 10:30:33;;;;;;;;;;;;;;;33.61;43.79;99480.19;5072853;28;20285;-72
2021/08/15 10:33:17;;;;;;;;;;;;;;;33.69;42.70;99482.88;5060714;28;19926;-71
2021/08/15 10:36:06;;;;;;;;;;;;;;;33.71;42.44;99480.94;5073996;28;19928;-72
2021/08/15 10:38:35;;;;;;;;;;;;;;;33.93;41.91;99475.13;5076293;28;19924;-72
2021/08/15 10:41:07;;;;;;;;;;;;;;;33.95;42.96;99473.19;5076291;28;20369;-71
2021/08/15 10:43:47;;;;;;;;;;;;;;;33.82;42.51;99467.44;5076230;28;20007;-71
2021/08/15 10:46:17;;;;;;;;;;;;;;;33.90;42.20;99462.22;5075698;28;20284;-74
2021/08/15 10:48:53;;;;;;;;;;;;;;;34.11;41.08;99454.78;5076149;28;19920;-75
2021/08/15 10:51:32;;;;;;;;;;;;;;;34.18;40.58;99458.47;5076046;28;19924;-72
2021/08/15 10:54:01;;;;;;;;;;;;;;;34.18;41.42;99457.63;5076104;28;19927;-71
2021/08/15 10:56:44;;;;;;;;;;;;;;;34.37;40.82;99446.78;5076302;28;19920;-71
2021/08/15 10:59:24;;;;;;;;;;;;;;;34.36;40.10;99451.25;5075371;28;19924;-72
2021/08/15 11:02:07;;;;;;;;;;;;;;;34.20;39.46;99453.84;5075916;28;20019;-74
2021/08/15 11:04:37;;;;;;;;;;;;;;;34.46;39.90;99451.16;5076186;28;19920;-75
2021/08/15 11:07:06;;;;;;;;;;;;;;;34.64;39.87;99448.44;5075723;28;20378;-74
2021/08/15 11:09:45;;;;;;;;;;;;;;;34.84;41.13;99449.88;5076052;28;19924;-74
2021/08/15 11:12:14;;;;;;;;;;;;;;;34.72;39.00;99440.53;5075720;28;19921;-76
2021/08/15 11:14:54;;;;;;;;;;;;;;;34.51;39.76;99450.66;5075608;28;19947;-76
2021/08/15 11:17:25;;;;;;;;;;;;;;;34.62;39.52;99450.44;5075656;28;19920;-76
2021/08/15 11:19:54;;;;;;;;;;;;;;;34.76;39.32;99441.88;5057931;28;19920;-76
2021/08/15 11:22:27;;;;;;;;;;;;;;;34.93;39.17;99436.47;5075547;28;19965;-76
2021/08/15 11:25:00;;;;;;;;;;;;;;;35.05;39.02;99441.47;5075404;28;19920;-76
2021/08/15 11:27:33;;;;;;;;;;;;;;;35.13;38.18;99437.00;5075602;28;19920;-76
2021/08/15 11:30:04;;;;;;;;;;;;;;;35.10;36.83;99426.75;5075218;28;19920;-76
2021/08/15 11:32:34;;;;;;;;;;;;;;;35.12;36.76;99422.09;5075301;28;20010;-76
2021/08/15 11:35:04;;;;;;;;;;;;;;;35.22;36.68;99429.91;5075401;28;19928;-74
2021/08/15 11:37:35;;;;;;;;;;;;;;;35.09;36.27;99426.88;5075317;28;19966;-73
2021/08/15 11:40:11;;;;;;;;;;;;;;;34.82;37.10;99419.97;5075544;28;20313;-74
2021/08/15 11:42:41;;;;;;;;;;;;;;;34.86;37.71;99426.66;5075287;28;19973;-73
2021/08/15 11:45:10;;;;;;;;;;;;;;;34.91;38.05;99419.03;5074967;28;19924;-74
2021/08/15 11:47:41;;;;;;;;;;;;;;;35.09;37.48;99416.25;5074948;28;19921;-74
2021/08/15 11:50:14;;;;;;;;;;;;;;;35.20;37.32;99419.47;5075158;28;19920;-73
2021/08/15 11:52:43;;;;;;;;;;;;;;;35.33;37.63;99419.78;5074806;28;19934;-73
2021/08/15 11:55:19;;;;;;;;;;;;;;;35.54;37.50;99412.19;5075168;28;19975;-73
2021/08/15 11:57:49;;;;;;;;;;;;;;;35.50;36.95;99410.00;5074620;28;19927;-73
2021/08/15 12:00:25;;;;;;;;;;;;;;;35.60;36.14;99400.06;5056926;28;20374;-74
2021/08/15 12:03:04;;;;;;;;;;;;;;;35.68;35.58;99403.53;5074686;28;19959;-73
2021/08/15 12:05:35;;;;;;;;;;;;;;;35.79;35.46;99398.88;5074934;28;19927;-74
2021/08/15 12:08:05;;;;;;;;;;;;;;;35.63;34.69;99405.88;5074675;28;20396;-74
2021/08/15 12:10:49;;;;;;;;;;;;;;;35.25;34.18;99406.50;5057031;28;19970;-73
2021/08/15 12:13:25;;;;;;;;;;;;;;;35.07;33.74;99400.50;5072602;28;19920;-74
2021/08/15 12:15:55;;;;;;;;;;;;;;;35.27;34.50;99391.25;5074885;28;19920;-77
2021/08/15 12:18:32;;;;;;;;;;;;;;;35.41;33.92;99389.75;5074354;28;19921;-77
2021/08/15 12:21:03;;;;;;;;;;;;;;;35.43;34.63;99391.25;5074436;28;19927;-77
2021/08/15 12:23:32;;;;;;;;;;;;;;;35.41;34.92;99382.63;5074311;28;19920;-77
2021/08/15 12:26:02;;;;;;;;;;;;;;;35.46;34.94;99387.44;5074919;28;19965;-77
2021/08/15 12:28:31;;;;;;;;;;;;;;;35.40;34.91;99378.31;5074279;28;20003;-77
2021/08/15 12:31:10;;;;;;;;;;;;;;;35.20;34.76;99374.34;5056304;28;19920;-75
2021/08/15 12:33:39;;;;;;;;;;;;;;;35.10;34.70;99371.00;5074468;28;19921;-76
2021/08/15 12:36:19;;;;;;;;;;;;;;;35.20;34.68;99360.22;5074002;28;20014;-77
2021/08/15 12:38:50;;;;;;;;;;;;;;;35.55;35.50;99363.41;5074451;28;20379;-77
2021/08/15 12:41:25;;;;;;;;;;;;;;;35.83;34.74;99363.00;5074108;28;19926;-77
2021/08/15 12:44:05;;;;;;;;;;;;;;;35.96;35.25;99358.81;5074907;28;19955;-77
2021/08/15 12:46:35;;;;;;;;;;;;;;;35.99;34.54;99350.56;5074415;28;19943;-77
2021/08/15 12:49:15;;;;;;;;;;;;;;;36.08;33.45;99357.50;5074232;28;20435;-77
2021/08/15 12:51:44;;;;;;;;;;;;;;;36.18;34.38;99355.47;5074311;28;19924;-76
2021/08/15 12:54:14;;;;;;;;;;;;;;;36.11;34.49;99349.19;5074055;28;20278;-77
2021/08/15 12:56:43;;;;;;;;;;;;;;;36.12;36.18;99342.00;5073861;28;19951;-77
2021/08/15 12:59:12;;;;;;;;;;;;;;;35.62;35.73;99343.13;5073794;28;19966;-74
2021/08/15 13:01:41;;;;;;;;;;;;;;;35.32;35.07;99348.28;5073823;28;19927;-77
2021/08/15 13:04:10;;;;;;;;;;;;;;;35.47;35.28;99342.09;5073730;28;19970;-77